sensor_id;sensor_type;location;lat;lon;timestamp;P1;durP1;ratioP1;P2;durP2;ratioP2
22201;SDS011;11266;51.522;6.302;2022-08-19T00:00:30;9.38;;;4.57;;
22201;SDS011;11266;51.522;6.302;2022-08-19T00:01:16;6.57;;;4.20;;
22201;SDS011;11266;51.522;6.302;2022-08-19T00:02:03;7.13;;;4.50;;
22201;SDS011;11266;51.522;6.302;2022-08-19T00:02:49;9.50;;;5.10;;
22201;SDS011;11266;51.522;6.302;2022-08-19T00:03:35;7.85;;;4.97;;
22201;SDS011;11266;51.522;6.302;2022-08-19T00:04:22;7.78;;;4.60;;
22201;SDS011;11266;51.522;6.302;2022-08-19T00:05:09;8.93;;;5.38;;
22201;SDS011;11266;51.522;6.302;2022-08-19T00:05:56;11.07;;;5.40;;
22201;SDS011;11266;51.522;6.302;2022-08-19T00:06:42;7.50;;;5.13;;
22201;SDS011;11266;51.522;6.302;2022-08-19T00:07:29;9.38;;;5.60;;
22201;SDS011;11266;51.522;6.302;2022-08-19T00:08:15;8.68;;;5.40;;
22201;SDS011;11266;51.522;6.302;2022-08-19T00:09:03;11.15;;;5.68;;
22201;SDS011;11266;51.522;6.302;2022-08-19T00:09:50;8.38;;;5.40;;
22201;SDS011;11266;51.522;6.302;2022-08-19T00:10:36;8.95;;;5.30;;
22201;SDS011;11266;51.522;6.302;2022-08-19T00:11:22;9.75;;;5.45;;
22201;SDS011;11266;51.522;6.302;2022-08-19T00:12:08;9.73;;;5.57;;
22201;SDS011;11266;51.522;6.302;2022-08-19T00:12:54;9.98;;;5.38;;
22201;SDS011;11266;51.522;6.302;2022-08-19T00:13:43;8.40;;;5.35;;
22201;SDS011;11266;51.522;6.302;2022-08-19T00:14:31;8.23;;;5.00;;
22201;SDS011;11266;51.522;6.302;2022-08-19T00:15:18;9.18;;;5.00;;
22201;SDS011;11266;51.522;6.302;2022-08-19T00:16:04;8.25;;;5.03;;
22201;SDS011;11266;51.522;6.302;2022-08-19T00:16:51;7.70;;;4.82;;
22201;SDS011;11266;51.522;6.302;2022-08-19T00:17:40;8.65;;;5.28;;
22201;SDS011;11266;51.522;6.302;2022-08-19T00:18:26;7.07;;;4.65;;
22201;SDS011;11266;51.522;6.302;2022-08-19T00:19:12;7.90;;;5.30;;
22201;SDS011;11266;51.522;6.302;2022-08-19T00:19:58;7.43;;;4.88;;
22201;SDS011;11266;51.522;6.302;2022-08-19T00:20:44;8.27;;;5.35;;
22201;SDS011;11266;51.522;6.302;2022-08-19T00:21:31;7.75;;;4.80;;
22201;SDS011;11266;51.522;6.302;2022-08-19T00:22:17;8.65;;;4.97;;
22201;SDS011;11266;51.522;6.302;2022-08-19T00:23:05;7.85;;;5.00;;
22201;SDS011;11266;51.522;6.302;2022-08-19T00:23:52;7.70;;;4.85;;
22201;SDS011;11266;51.522;6.302;2022-08-19T00:24:38;8.25;;;4.70;;
22201;SDS011;11266;51.522;6.302;2022-08-19T00:25:26;7.03;;;4.30;;
22201;SDS011;11266;51.522;6.302;2022-08-19T00:26:12;8.15;;;4.55;;
22201;SDS011;11266;51.522;6.302;2022-08-19T00:26:58;7.25;;;4.47;;
22201;SDS011;11266;51.522;6.302;2022-08-19T00:27:47;7.03;;;4.53;;
22201;SDS011;11266;51.522;6.302;2022-08-19T00:28:33;6.53;;;4.43;;
22201;SDS011;11266;51.522;6.302;2022-08-19T00:29:20;6.82;;;4.45;;
22201;SDS011;11266;51.522;6.302;2022-08-19T00:30:07;6.75;;;4.30;;
22201;SDS011;11266;51.522;6.302;2022-08-19T00:30:55;8.07;;;4.72;;
22201;SDS011;11266;51.522;6.302;2022-08-19T00:31:41;7.65;;;4.13;;
22201;SDS011;11266;51.522;6.302;2022-08-19T00:32:30;7.70;;;4.70;;
22201;SDS011;11266;51.522;6.302;2022-08-19T00:33:16;7.20;;;4.40;;
22201;SDS011;11266;51.522;6.302;2022-08-19T00:34:02;7.00;;;4.43;;
22201;SDS011;11266;51.522;6.302;2022-08-19T00:34:51;7.20;;;4.47;;
22201;SDS011;11266;51.522;6.302;2022-08-19T05:57:39;13.70;;;12.25;;
22201;SDS011;11266;51.522;6.302;2022-08-19T05:58:27;16.65;;;12.85;;
22201;SDS011;11266;51.522;6.302;2022-08-19T05:59:14;13.32;;;11.93;;
22201;SDS011;11266;51.522;6.302;2022-08-19T06:00:00;13.13;;;11.65;;
22201;SDS011;11266;51.522;6.302;2022-08-19T06:00:49;12.02;;;10.70;;
22201;SDS011;11266;51.522;6.302;2022-08-19T06:01:37;13.17;;;11.77;;
22201;SDS011;11266;51.522;6.302;2022-08-19T06:02:26;13.18;;;11.88;;
22201;SDS011;11266;51.522;6.302;2022-08-19T06:03:12;14.07;;;11.63;;
22201;SDS011;11266;51.522;6.302;2022-08-19T06:03:58;12.75;;;11.45;;
22201;SDS011;11266;51.522;6.302;2022-08-19T06:04:44;11.97;;;10.77;;
22201;SDS011;11266;51.522;6.302;2022-08-19T06:05:30;12.05;;;10.75;;
22201;SDS011;11266;51.522;6.302;2022-08-19T06:06:17;13.48;;;12.10;;
22201;SDS011;11266;51.522;6.302;2022-08-19T06:07:03;12.90;;;11.43;;
22201;SDS011;11266;51.522;6.302;2022-08-19T06:07:49;13.02;;;11.70;;
22201;SDS011;11266;51.522;6.302;2022-08-19T06:08:36;13.00;;;11.70;;
22201;SDS011;11266;51.522;6.302;2022-08-19T06:09:23;15.57;;;12.75;;
22201;SDS011;11266;51.522;6.302;2022-08-19T06:10:10;14.82;;;13.25;;
22201;SDS011;11266;51.522;6.302;2022-08-19T06:10:56;18.00;;;16.08;;
22201;SDS011;11266;51.522;6.302;2022-08-19T06:11:43;18.13;;;15.55;;
22201;SDS011;11266;51.522;6.302;2022-08-19T06:12:31;19.17;;;14.70;;
22201;SDS011;11266;51.522;6.302;2022-08-19T06:13:19;14.82;;;13.25;;
22201;SDS011;11266;51.522;6.302;2022-08-19T06:14:06;15.93;;;13.77;;
22201;SDS011;11266;51.522;6.302;2022-08-19T06:14:55;15.07;;;13.48;;
22201;SDS011;11266;51.522;6.302;2022-08-19T06:15:41;17.17;;;15.13;;
22201;SDS011;11266;51.522;6.302;2022-08-19T06:16:29;20.38;;;13.95;;
22201;SDS011;11266;51.522;6.302;2022-08-19T06:17:16;17.45;;;14.48;;
22201;SDS011;11266;51.522;6.302;2022-08-19T06:18:02;16.10;;;14.05;;
22201;SDS011;11266;51.522;6.302;2022-08-19T06:18:55;14.40;;;12.90;;
22201;SDS011;11266;51.522;6.302;2022-08-19T06:19:41;18.10;;;16.17;;
22201;SDS011;11266;51.522;6.302;2022-08-19T06:20:28;17.65;;;14.98;;
22201;SDS011;11266;51.522;6.302;2022-08-19T06:21:27;17.17;;;15.32;;
22201;SDS011;11266;51.522;6.302;2022-08-19T06:22:13;19.23;;;16.17;;
22201;SDS011;11266;51.522;6.302;2022-08-19T06:22:59;17.63;;;15.75;;
22201;SDS011;11266;51.522;6.302;2022-08-19T06:23:46;19.27;;;16.63;;
22201;SDS011;11266;51.522;6.302;2022-08-19T06:24:32;19.02;;;16.33;;
22201;SDS011;11266;51.522;6.302;2022-08-19T06:25:18;20.13;;;17.05;;
22201;SDS011;11266;51.522;6.302;2022-08-19T06:26:12;22.27;;;18.70;;
22201;SDS011;11266;51.522;6.302;2022-08-19T06:26:58;21.40;;;18.17;;
22201;SDS011;11266;51.522;6.302;2022-08-19T06:27:47;19.95;;;17.95;;
22201;SDS011;11266;51.522;6.302;2022-08-19T06:28:33;19.83;;;17.73;;
22201;SDS011;11266;51.522;6.302;2022-08-19T06:29:20;20.38;;;18.20;;
22201;SDS011;11266;51.522;6.302;2022-08-19T06:30:06;20.67;;;18.48;;
22201;SDS011;11266;51.522;6.302;2022-08-19T06:30:55;19.15;;;16.92;;
22201;SDS011;11266;51.522;6.302;2022-08-19T06:31:42;20.15;;;17.90;;
22201;SDS011;11266;51.522;6.302;2022-08-19T06:32:28;21.20;;;17.38;;
22201;SDS011;11266;51.522;6.302;2022-08-19T06:33:15;19.17;;;15.52;;
22201;SDS011;11266;51.522;6.302;2022-08-19T06:34:01;18.73;;;16.73;;
22201;SDS011;11266;51.522;6.302;2022-08-19T06:34:47;21.17;;;17.03;;
22201;SDS011;11266;51.522;6.302;2022-08-19T06:35:38;19.45;;;16.95;;
22201;SDS011;11266;51.522;6.302;2022-08-19T06:36:25;19.95;;;17.77;;
22201;SDS011;11266;51.522;6.302;2022-08-19T06:37:18;22.02;;;19.10;;
22201;SDS011;11266;51.522;6.302;2022-08-19T06:38:06;20.75;;;17.80;;
22201;SDS011;11266;51.522;6.302;2022-08-19T06:38:54;21.33;;;18.15;;
22201;SDS011;11266;51.522;6.302;2022-08-19T06:39:42;20.17;;;16.65;;
22201;SDS011;11266;51.522;6.302;2022-08-19T06:40:28;18.17;;;16.02;;
22201;SDS011;11266;51.522;6.302;2022-08-19T06:41:17;18.23;;;16.33;;
22201;SDS011;11266;51.522;6.302;2022-08-19T06:42:03;20.58;;;16.88;;
22201;SDS011;11266;51.522;6.302;2022-08-19T06:42:51;19.38;;;16.58;;
22201;SDS011;11266;51.522;6.302;2022-08-19T06:43:38;21.90;;;17.95;;
22201;SDS011;11266;51.522;6.302;2022-08-19T06:44:26;19.80;;;15.75;;
22201;SDS011;11266;51.522;6.302;2022-08-19T06:45:12;22.55;;;18.55;;
22201;SDS011;11266;51.522;6.302;2022-08-19T06:45:59;20.42;;;17.95;;
22201;SDS011;11266;51.522;6.302;2022-08-19T06:46:48;21.08;;;17.40;;
22201;SDS011;11266;51.522;6.302;2022-08-19T06:47:34;17.30;;;15.50;;
22201;SDS011;11266;51.522;6.302;2022-08-19T06:48:20;16.92;;;15.13;;
22201;SDS011;11266;51.522;6.302;2022-08-19T06:49:06;18.50;;;16.60;;
22201;SDS011;11266;51.522;6.302;2022-08-19T06:49:55;20.08;;;17.63;;
22201;SDS011;11266;51.522;6.302;2022-08-19T06:50:45;19.88;;;16.77;;
22201;SDS011;11266;51.522;6.302;2022-08-19T06:51:32;20.33;;;17.83;;
22201;SDS011;11266;51.522;6.302;2022-08-19T06:52:19;22.07;;;18.73;;
22201;SDS011;11266;51.522;6.302;2022-08-19T06:53:05;20.58;;;17.95;;
22201;SDS011;11266;51.522;6.302;2022-08-19T06:53:52;25.65;;;21.00;;
22201;SDS011;11266;51.522;6.302;2022-08-19T06:54:38;21.58;;;17.63;;
22201;SDS011;11266;51.522;6.302;2022-08-19T06:55:24;23.08;;;19.85;;
22201;SDS011;11266;51.522;6.302;2022-08-19T06:56:17;24.75;;;20.45;;
22201;SDS011;11266;51.522;6.302;2022-08-19T06:57:03;23.52;;;20.92;;
22201;SDS011;11266;51.522;6.302;2022-08-19T06:57:50;25.08;;;21.55;;
22201;SDS011;11266;51.522;6.302;2022-08-19T06:58:38;23.50;;;21.00;;
22201;SDS011;11266;51.522;6.302;2022-08-19T06:59:24;25.23;;;22.42;;
22201;SDS011;11266;51.522;6.302;2022-08-19T07:00:13;23.25;;;20.33;;
22201;SDS011;11266;51.522;6.302;2022-08-19T07:01:01;23.95;;;20.85;;
22201;SDS011;11266;51.522;6.302;2022-08-19T07:01:48;26.88;;;22.15;;
22201;SDS011;11266;51.522;6.302;2022-08-19T07:02:34;25.67;;;22.30;;
22201;SDS011;11266;51.522;6.302;2022-08-19T07:03:25;26.73;;;22.50;;
22201;SDS011;11266;51.522;6.302;2022-08-19T07:04:14;25.17;;;21.42;;
22201;SDS011;11266;51.522;6.302;2022-08-19T07:05:00;22.38;;;19.38;;
22201;SDS011;11266;51.522;6.302;2022-08-19T07:05:50;24.92;;;20.92;;
22201;SDS011;11266;51.522;6.302;2022-08-19T07:06:36;27.23;;;22.50;;
22201;SDS011;11266;51.522;6.302;2022-08-19T07:07:22;26.42;;;23.30;;
22201;SDS011;11266;51.522;6.302;2022-08-19T07:08:08;24.88;;;22.25;;
22201;SDS011;11266;51.522;6.302;2022-08-19T07:08:54;24.45;;;21.23;;
22201;SDS011;11266;51.522;6.302;2022-08-19T07:09:43;29.45;;;24.00;;
22201;SDS011;11266;51.522;6.302;2022-08-19T07:10:29;32.35;;;25.55;;
22201;SDS011;11266;51.522;6.302;2022-08-19T07:11:18;30.33;;;25.08;;
22201;SDS011;11266;51.522;6.302;2022-08-19T07:12:06;27.02;;;24.00;;
22201;SDS011;11266;51.522;6.302;2022-08-19T07:12:52;26.88;;;21.55;;
22201;SDS011;11266;51.522;6.302;2022-08-19T07:13:39;30.07;;;24.20;;
22201;SDS011;11266;51.522;6.302;2022-08-19T07:14:28;28.85;;;24.27;;
22201;SDS011;11266;51.522;6.302;2022-08-19T07:15:14;28.90;;;25.63;;
22201;SDS011;11266;51.522;6.302;2022-08-19T07:16:02;26.83;;;22.35;;
22201;SDS011;11266;51.522;6.302;2022-08-19T07:16:49;29.00;;;23.45;;
22201;SDS011;11266;51.522;6.302;2022-08-19T07:17:36;29.25;;;24.17;;
22201;SDS011;11266;51.522;6.302;2022-08-19T07:18:24;28.92;;;24.33;;
22201;SDS011;11266;51.522;6.302;2022-08-19T07:19:10;28.65;;;24.25;;
22201;SDS011;11266;51.522;6.302;2022-08-19T07:19:56;27.85;;;24.05;;
22201;SDS011;11266;51.522;6.302;2022-08-19T07:20:42;31.33;;;24.25;;
22201;SDS011;11266;51.522;6.302;2022-08-19T07:21:28;27.83;;;24.05;;
22201;SDS011;11266;51.522;6.302;2022-08-19T07:22:14;29.15;;;22.20;;
22201;SDS011;11266;51.522;6.302;2022-08-19T07:23:00;25.25;;;22.55;;
22201;SDS011;11266;51.522;6.302;2022-08-19T07:23:46;26.83;;;23.48;;
22201;SDS011;11266;51.522;6.302;2022-08-19T07:24:33;29.08;;;25.10;;
22201;SDS011;11266;51.522;6.302;2022-08-19T07:25:19;24.95;;;21.33;;
22201;SDS011;11266;51.522;6.302;2022-08-19T07:26:06;24.52;;;21.92;;
22201;SDS011;11266;51.522;6.302;2022-08-19T07:26:54;29.80;;;23.25;;
22201;SDS011;11266;51.522;6.302;2022-08-19T07:27:40;27.73;;;23.25;;
22201;SDS011;11266;51.522;6.302;2022-08-19T07:28:26;33.28;;;24.98;;
22201;SDS011;11266;51.522;6.302;2022-08-19T07:29:12;26.10;;;21.77;;
22201;SDS011;11266;51.522;6.302;2022-08-19T07:29:58;30.48;;;24.88;;
22201;SDS011;11266;51.522;6.302;2022-08-19T07:30:45;26.60;;;23.10;;
22201;SDS011;11266;51.522;6.302;2022-08-19T07:31:31;28.30;;;23.42;;
22201;SDS011;11266;51.522;6.302;2022-08-19T07:32:21;26.35;;;23.17;;
22201;SDS011;11266;51.522;6.302;2022-08-19T07:33:07;24.80;;;22.17;;
22201;SDS011;11266;51.522;6.302;2022-08-19T07:33:54;26.30;;;23.00;;
22201;SDS011;11266;51.522;6.302;2022-08-19T07:34:41;26.05;;;22.77;;
22201;SDS011;11266;51.522;6.302;2022-08-19T07:35:27;30.77;;;25.75;;
22201;SDS011;11266;51.522;6.302;2022-08-19T07:36:14;30.50;;;25.90;;
22201;SDS011;11266;51.522;6.302;2022-08-19T07:37:01;32.10;;;26.42;;
22201;SDS011;11266;51.522;6.302;2022-08-19T07:37:48;30.23;;;26.13;;
22201;SDS011;11266;51.522;6.302;2022-08-19T07:38:35;27.80;;;24.23;;
22201;SDS011;11266;51.522;6.302;2022-08-19T07:39:22;28.65;;;23.77;;
22201;SDS011;11266;51.522;6.302;2022-08-19T07:40:10;25.67;;;22.88;;
22201;SDS011;11266;51.522;6.302;2022-08-19T07:40:56;29.33;;;24.65;;
22201;SDS011;11266;51.522;6.302;2022-08-19T07:41:43;30.65;;;25.58;;
22201;SDS011;11266;51.522;6.302;2022-08-19T07:42:29;30.60;;;26.00;;
22201;SDS011;11266;51.522;6.302;2022-08-19T07:43:15;27.98;;;22.30;;
22201;SDS011;11266;51.522;6.302;2022-08-19T07:44:05;29.48;;;25.35;;
22201;SDS011;11266;51.522;6.302;2022-08-19T07:44:52;28.30;;;24.13;;
22201;SDS011;11266;51.522;6.302;2022-08-19T07:45:41;29.77;;;25.67;;
22201;SDS011;11266;51.522;6.302;2022-08-19T07:46:29;31.05;;;26.80;;
22201;SDS011;11266;51.522;6.302;2022-08-19T07:47:16;30.88;;;25.95;;
22201;SDS011;11266;51.522;6.302;2022-08-19T07:48:03;28.33;;;24.92;;
22201;SDS011;11266;51.522;6.302;2022-08-19T07:48:49;28.83;;;24.73;;
22201;SDS011;11266;51.522;6.302;2022-08-19T07:49:35;27.50;;;23.83;;
22201;SDS011;11266;51.522;6.302;2022-08-19T07:50:21;25.50;;;22.73;;
22201;SDS011;11266;51.522;6.302;2022-08-19T07:51:08;27.25;;;23.25;;
22201;SDS011;11266;51.522;6.302;2022-08-19T07:51:59;29.92;;;25.65;;
22201;SDS011;11266;51.522;6.302;2022-08-19T07:52:46;28.00;;;24.33;;
22201;SDS011;11266;51.522;6.302;2022-08-19T07:53:35;34.43;;;28.87;;
22201;SDS011;11266;51.522;6.302;2022-08-19T07:54:22;32.92;;;28.80;;
22201;SDS011;11266;51.522;6.302;2022-08-19T07:55:09;33.03;;;28.67;;
22201;SDS011;11266;51.522;6.302;2022-08-19T07:55:56;34.05;;;29.48;;
22201;SDS011;11266;51.522;6.302;2022-08-19T07:56:49;36.67;;;30.60;;
22201;SDS011;11266;51.522;6.302;2022-08-19T07:57:38;29.33;;;24.70;;
22201;SDS011;11266;51.522;6.302;2022-08-19T07:58:24;31.65;;;28.05;;
22201;SDS011;11266;51.522;6.302;2022-08-19T07:59:10;35.90;;;28.90;;
22201;SDS011;11266;51.522;6.302;2022-08-19T07:59:56;30.60;;;26.05;;
22201;SDS011;11266;51.522;6.302;2022-08-19T08:00:43;27.20;;;24.00;;
22201;SDS011;11266;51.522;6.302;2022-08-19T08:01:29;27.67;;;23.88;;
22201;SDS011;11266;51.522;6.302;2022-08-19T08:02:15;29.15;;;24.27;;
22201;SDS011;11266;51.522;6.302;2022-08-19T08:03:01;30.08;;;23.85;;
22201;SDS011;11266;51.522;6.302;2022-08-19T08:03:48;27.52;;;24.08;;
22201;SDS011;11266;51.522;6.302;2022-08-19T08:04:53;26.98;;;23.92;;
22201;SDS011;11266;51.522;6.302;2022-08-19T08:05:58;30.80;;;27.13;;
22201;SDS011;11266;51.522;6.302;2022-08-19T08:07:03;28.13;;;25.00;;
22201;SDS011;11266;51.522;6.302;2022-08-19T08:08:08;30.83;;;26.70;;
22201;SDS011;11266;51.522;6.302;2022-08-19T08:09:30;30.50;;;26.30;;
22201;SDS011;11266;51.522;6.302;2022-08-19T08:10:16;26.90;;;23.33;;
22201;SDS011;11266;51.522;6.302;2022-08-19T08:11:04;27.85;;;23.45;;
22201;SDS011;11266;51.522;6.302;2022-08-19T08:11:51;28.50;;;25.40;;
22201;SDS011;11266;51.522;6.302;2022-08-19T08:12:39;31.02;;;25.48;;
22201;SDS011;11266;51.522;6.302;2022-08-19T08:13:26;31.90;;;25.50;;
22201;SDS011;11266;51.522;6.302;2022-08-19T08:14:12;31.70;;;27.73;;
22201;SDS011;11266;51.522;6.302;2022-08-19T08:14:59;30.52;;;26.25;;
22201;SDS011;11266;51.522;6.302;2022-08-19T08:15:49;34.60;;;28.92;;
22201;SDS011;11266;51.522;6.302;2022-08-19T08:16:36;30.75;;;25.95;;
22201;SDS011;11266;51.522;6.302;2022-08-19T08:17:23;34.05;;;27.85;;
22201;SDS011;11266;51.522;6.302;2022-08-19T08:18:10;33.35;;;27.80;;
22201;SDS011;11266;51.522;6.302;2022-08-19T08:18:57;29.02;;;25.83;;
22201;SDS011;11266;51.522;6.302;2022-08-19T08:19:43;33.50;;;28.25;;
22201;SDS011;11266;51.522;6.302;2022-08-19T08:20:30;32.93;;;26.63;;
22201;SDS011;11266;51.522;6.302;2022-08-19T08:21:16;32.70;;;28.35;;
22201;SDS011;11266;51.522;6.302;2022-08-19T08:22:03;29.77;;;25.13;;
22201;SDS011;11266;51.522;6.302;2022-08-19T08:22:51;29.73;;;25.35;;
22201;SDS011;11266;51.522;6.302;2022-08-19T08:24:03;31.80;;;27.80;;
22201;SDS011;11266;51.522;6.302;2022-08-19T08:24:49;34.45;;;28.15;;
22201;SDS011;11266;51.522;6.302;2022-08-19T08:25:35;27.47;;;23.97;;
22201;SDS011;11266;51.522;6.302;2022-08-19T08:26:22;31.17;;;26.27;;
22201;SDS011;11266;51.522;6.302;2022-08-19T08:27:08;28.75;;;24.95;;
22201;SDS011;11266;51.522;6.302;2022-08-19T08:27:54;36.45;;;27.70;;
22201;SDS011;11266;51.522;6.302;2022-08-19T08:28:41;31.25;;;27.58;;
22201;SDS011;11266;51.522;6.302;2022-08-19T08:29:28;34.25;;;27.73;;
22201;SDS011;11266;51.522;6.302;2022-08-19T08:30:18;32.47;;;27.92;;
22201;SDS011;11266;51.522;6.302;2022-08-19T08:31:04;33.30;;;27.67;;
22201;SDS011;11266;51.522;6.302;2022-08-19T08:31:50;30.23;;;24.83;;
22201;SDS011;11266;51.522;6.302;2022-08-19T08:32:37;33.05;;;27.83;;
22201;SDS011;11266;51.522;6.302;2022-08-19T08:33:24;34.88;;;29.45;;
22201;SDS011;11266;51.522;6.302;2022-08-19T08:34:11;32.50;;;26.80;;
22201;SDS011;11266;51.522;6.302;2022-08-19T08:34:57;29.38;;;24.17;;
22201;SDS011;11266;51.522;6.302;2022-08-19T08:35:44;28.30;;;24.90;;
22201;SDS011;11266;51.522;6.302;2022-08-19T08:36:30;30.95;;;26.10;;
22201;SDS011;11266;51.522;6.302;2022-08-19T08:37:18;30.98;;;25.33;;
22201;SDS011;11266;51.522;6.302;2022-08-19T08:38:04;35.05;;;28.33;;
22201;SDS011;11266;51.522;6.302;2022-08-19T08:38:50;29.65;;;24.35;;
22201;SDS011;11266;51.522;6.302;2022-08-19T08:39:37;28.42;;;24.25;;
22201;SDS011;11266;51.522;6.302;2022-08-19T08:40:32;25.95;;;23.00;;
22201;SDS011;11266;51.522;6.302;2022-08-19T08:42:31;23.85;;;20.90;;
22201;SDS011;11266;51.522;6.302;2022-08-19T08:43:33;29.25;;;24.67;;
22201;SDS011;11266;51.522;6.302;2022-08-19T08:44:31;27.00;;;23.48;;
22201;SDS011;11266;51.522;6.302;2022-08-19T08:45:24;25.53;;;21.90;;
22201;SDS011;11266;51.522;6.302;2022-08-19T08:46:15;24.15;;;20.73;;
22201;SDS011;11266;51.522;6.302;2022-08-19T08:47:04;24.90;;;21.77;;
22201;SDS011;11266;51.522;6.302;2022-08-19T08:47:53;29.40;;;25.15;;
22201;SDS011;11266;51.522;6.302;2022-08-19T08:48:47;25.90;;;22.33;;
22201;SDS011;11266;51.522;6.302;2022-08-19T08:50:31;31.38;;;23.50;;
22201;SDS011;11266;51.522;6.302;2022-08-19T08:51:23;27.60;;;23.48;;
22201;SDS011;11266;51.522;6.302;2022-08-19T08:52:22;27.30;;;22.98;;
22201;SDS011;11266;51.522;6.302;2022-08-19T08:53:09;24.50;;;21.65;;
22201;SDS011;11266;51.522;6.302;2022-08-19T08:53:56;27.77;;;22.90;;
22201;SDS011;11266;51.522;6.302;2022-08-19T08:54:43;25.98;;;22.25;;
22201;SDS011;11266;51.522;6.302;2022-08-19T08:55:30;26.42;;;21.70;;
22201;SDS011;11266;51.522;6.302;2022-08-19T08:56:16;30.40;;;23.92;;
22201;SDS011;11266;51.522;6.302;2022-08-19T08:57:04;26.88;;;22.73;;
22201;SDS011;11266;51.522;6.302;2022-08-19T08:57:54;26.70;;;21.15;;
22201;SDS011;11266;51.522;6.302;2022-08-19T08:59:31;26.02;;;21.65;;
22201;SDS011;11266;51.522;6.302;2022-08-19T09:01:17;28.58;;;24.15;;
22201;SDS011;11266;51.522;6.302;2022-08-19T09:02:04;27.88;;;23.10;;
22201;SDS011;11266;51.522;6.302;2022-08-19T09:02:50;23.85;;;19.45;;
22201;SDS011;11266;51.522;6.302;2022-08-19T09:03:37;27.02;;;21.35;;
22201;SDS011;11266;51.522;6.302;2022-08-19T09:04:24;27.48;;;21.98;;
22201;SDS011;11266;51.522;6.302;2022-08-19T09:05:10;27.05;;;21.88;;
22201;SDS011;11266;51.522;6.302;2022-08-19T09:06:04;25.98;;;20.63;;
22201;SDS011;11266;51.522;6.302;2022-08-19T09:06:58;24.42;;;19.85;;
22201;SDS011;11266;51.522;6.302;2022-08-19T09:11:22;24.25;;;20.20;;
22201;SDS011;11266;51.522;6.302;2022-08-19T09:13:07;26.23;;;18.73;;
22201;SDS011;11266;51.522;6.302;2022-08-19T09:14:10;23.90;;;19.15;;
22201;SDS011;11266;51.522;6.302;2022-08-19T09:15:03;23.02;;;19.10;;
22201;SDS011;11266;51.522;6.302;2022-08-19T09:15:54;23.30;;;19.33;;
22201;SDS011;11266;51.522;6.302;2022-08-19T09:16:42;24.20;;;19.10;;
22201;SDS011;11266;51.522;6.302;2022-08-19T09:17:30;26.50;;;19.90;;
22201;SDS011;11266;51.522;6.302;2022-08-19T09:18:18;24.85;;;20.92;;
22201;SDS011;11266;51.522;6.302;2022-08-19T09:19:05;26.60;;;19.03;;
22201;SDS011;11266;51.522;6.302;2022-08-19T09:19:53;26.55;;;20.77;;
22201;SDS011;11266;51.522;6.302;2022-08-19T09:20:39;29.85;;;21.00;;
22201;SDS011;11266;51.522;6.302;2022-08-19T09:21:25;24.20;;;19.20;;
22201;SDS011;11266;51.522;6.302;2022-08-19T09:22:12;23.77;;;18.50;;
22201;SDS011;11266;51.522;6.302;2022-08-19T09:22:58;23.45;;;17.83;;
22201;SDS011;11266;51.522;6.302;2022-08-19T09:23:44;23.63;;;17.83;;
22201;SDS011;11266;51.522;6.302;2022-08-19T09:24:32;24.67;;;16.85;;
22201;SDS011;11266;51.522;6.302;2022-08-19T09:25:21;21.23;;;17.77;;
22201;SDS011;11266;51.522;6.302;2022-08-19T09:26:11;20.65;;;16.70;;
22201;SDS011;11266;51.522;6.302;2022-08-19T09:27:00;21.52;;;16.75;;
22201;SDS011;11266;51.522;6.302;2022-08-19T09:27:48;20.63;;;17.15;;
22201;SDS011;11266;51.522;6.302;2022-08-19T09:28:34;21.80;;;17.33;;
22201;SDS011;11266;51.522;6.302;2022-08-19T09:29:23;19.33;;;16.25;;
22201;SDS011;11266;51.522;6.302;2022-08-19T09:30:12;18.08;;;15.90;;
22201;SDS011;11266;51.522;6.302;2022-08-19T09:30:58;21.02;;;16.80;;
22201;SDS011;11266;51.522;6.302;2022-08-19T09:31:44;18.92;;;15.57;;
22201;SDS011;11266;51.522;6.302;2022-08-19T09:32:30;21.90;;;17.20;;
22201;SDS011;11266;51.522;6.302;2022-08-19T09:33:16;20.02;;;15.10;;
22201;SDS011;11266;51.522;6.302;2022-08-19T09:34:02;20.92;;;15.38;;
22201;SDS011;11266;51.522;6.302;2022-08-19T09:34:49;19.65;;;14.77;;
22201;SDS011;11266;51.522;6.302;2022-08-19T09:35:37;16.42;;;14.00;;
22201;SDS011;11266;51.522;6.302;2022-08-19T09:36:24;17.10;;;14.00;;
22201;SDS011;11266;51.522;6.302;2022-08-19T09:37:11;18.55;;;14.73;;
22201;SDS011;11266;51.522;6.302;2022-08-19T09:37:57;19.23;;;14.90;;
22201;SDS011;11266;51.522;6.302;2022-08-19T09:38:44;18.65;;;15.00;;
22201;SDS011;11266;51.522;6.302;2022-08-19T09:39:30;19.85;;;14.45;;
22201;SDS011;11266;51.522;6.302;2022-08-19T09:40:17;19.85;;;14.43;;
22201;SDS011;11266;51.522;6.302;2022-08-19T09:41:06;16.58;;;13.63;;
22201;SDS011;11266;51.522;6.302;2022-08-19T09:41:52;17.98;;;13.98;;
22201;SDS011;11266;51.522;6.302;2022-08-19T09:42:38;18.88;;;14.23;;
22201;SDS011;11266;51.522;6.302;2022-08-19T09:43:24;17.13;;;14.27;;
22201;SDS011;11266;51.522;6.302;2022-08-19T09:44:15;20.15;;;14.35;;
22201;SDS011;11266;51.522;6.302;2022-08-19T09:45:01;18.98;;;13.57;;
22201;SDS011;11266;51.522;6.302;2022-08-19T09:45:48;16.55;;;13.80;;
22201;SDS011;11266;51.522;6.302;2022-08-19T09:46:34;16.00;;;12.65;;
22201;SDS011;11266;51.522;6.302;2022-08-19T09:47:20;18.60;;;13.15;;
22201;SDS011;11266;51.522;6.302;2022-08-19T09:48:09;16.25;;;12.35;;
22201;SDS011;11266;51.522;6.302;2022-08-19T09:48:56;21.88;;;13.25;;
22201;SDS011;11266;51.522;6.302;2022-08-19T09:49:43;16.73;;;12.35;;
22201;SDS011;11266;51.522;6.302;2022-08-19T09:50:29;20.23;;;12.00;;
22201;SDS011;11266;51.522;6.302;2022-08-19T09:51:21;19.73;;;12.25;;
22201;SDS011;11266;51.522;6.302;2022-08-19T09:52:08;14.02;;;12.27;;
22201;SDS011;11266;51.522;6.302;2022-08-19T09:52:57;14.57;;;11.68;;
22201;SDS011;11266;51.522;6.302;2022-08-19T09:53:46;15.75;;;11.80;;
22201;SDS011;11266;51.522;6.302;2022-08-19T09:54:35;15.07;;;12.00;;
22201;SDS011;11266;51.522;6.302;2022-08-19T09:55:24;16.20;;;11.98;;
22201;SDS011;11266;51.522;6.302;2022-08-19T09:56:11;13.10;;;11.15;;
22201;SDS011;11266;51.522;6.302;2022-08-19T09:56:57;15.13;;;11.60;;
22201;SDS011;11266;51.522;6.302;2022-08-19T09:57:45;15.00;;;11.60;;
22201;SDS011;11266;51.522;6.302;2022-08-19T09:58:31;13.73;;;10.88;;
22201;SDS011;11266;51.522;6.302;2022-08-19T09:59:20;17.80;;;11.18;;
22201;SDS011;11266;51.522;6.302;2022-08-19T10:00:07;17.80;;;11.27;;
22201;SDS011;11266;51.522;6.302;2022-08-19T10:00:54;13.77;;;10.07;;
22201;SDS011;11266;51.522;6.302;2022-08-19T10:01:40;15.57;;;10.05;;
22201;SDS011;11266;51.522;6.302;2022-08-19T10:02:27;16.05;;;11.52;;
22201;SDS011;11266;51.522;6.302;2022-08-19T10:03:13;13.57;;;10.50;;
22201;SDS011;11266;51.522;6.302;2022-08-19T10:03:59;15.73;;;11.43;;
22201;SDS011;11266;51.522;6.302;2022-08-19T10:04:47;14.97;;;10.40;;
22201;SDS011;11266;51.522;6.302;2022-08-19T10:05:52;15.57;;;11.27;;
22201;SDS011;11266;51.522;6.302;2022-08-19T10:06:38;13.75;;;10.82;;
22201;SDS011;11266;51.522;6.302;2022-08-19T10:07:25;16.40;;;10.70;;
22201;SDS011;11266;51.522;6.302;2022-08-19T10:08:11;12.30;;;9.77;;
22201;SDS011;11266;51.522;6.302;2022-08-19T10:08:57;13.60;;;10.57;;
22201;SDS011;11266;51.522;6.302;2022-08-19T10:09:43;14.50;;;10.63;;
22201;SDS011;11266;51.522;6.302;2022-08-19T10:10:29;14.10;;;10.30;;
22201;SDS011;11266;51.522;6.302;2022-08-19T10:11:15;15.15;;;10.55;;
22201;SDS011;11266;51.522;6.302;2022-08-19T10:12:02;13.90;;;10.68;;